Time;durP1;ratioP1;P1;durP2;ratioP2;P2;SDS_P1;SDS_P2;PMS_P1;PMS_P2;Temp;Humidity;BMP_temperature;BMP_pressure;BME280_temperature;BME280_humidity;BME280_pressure;Samples;Min_cycle;Max_cycle;Signal;HPM_P1;HPM_P2
2022/01/04 00:01:34;;;;;;;32.67;9.77;;;7.50;99.90;;;;;;5028485;28;20061;-70
2022/01/04 00:03:59;;;;;;;28.80;9.30;;;7.50;99.90;;;;;;5019397;28;20029;-70
2022/01/04 00:06:25;;;;;;;19.37;6.37;;;7.50;99.90;;;;;;5024771;28;20306;-70
2022/01/04 00:08:55;;;;;;;21.00;3.13;;;7.50;99.90;;;;;;5002977;28;20117;-70
2022/01/04 00:11:32;;;;;;;13.07;3.13;;;7.50;99.90;;;;;;5017132;28;20038;-70
2022/01/04 00:13:57;;;;;;;23.58;3.83;;;7.50;99.90;;;;;;5007919;28;20034;-70
2022/01/04 00:16:23;;;;;;;33.33;4.60;;;7.50;99.90;;;;;;5017330;28;20049;-70
2022/01/04 00:18:48;;;;;;;12.03;2.53;;;7.50;99.90;;;;;;5016304;28;20185;-70
2022/01/04 00:21:14;;;;;;;20.10;2.67;;;7.50;99.90;;;;;;4999042;28;20076;-70
2022/01/04 00:23:40;;;;;;;14.87;2.87;;;7.50;99.90;;;;;;5000773;28;20037;-70
2022/01/04 00:26:05;;;;;;;14.90;2.90;;;7.50;99.90;;;;;;5022612;28;20482;-70
2022/01/04 00:28:31;;;;;;;29.73;5.00;;;7.50;99.90;;;;;;4988556;28;20056;-70
2022/01/04 00:30:57;;;;;;;17.37;3.70;;;7.60;99.90;;;;;;5009310;28;20217;-70
2022/01/04 00:33:23;;;;;;;22.05;3.30;;;7.60;99.90;;;;;;5001301;28;20037;-70
2022/01/04 00:35:48;;;;;;;18.37;3.20;;;7.60;99.90;;;;;;4994438;28;20548;-70
2022/01/04 00:38:14;;;;;;;14.77;5.63;;;7.60;99.90;;;;;;5001673;28;20828;-70
2022/01/04 00:40:40;;;;;;;19.00;3.47;;;7.70;99.90;;;;;;5016840;28;20040;-70
2022/01/04 00:43:09;;;;;;;38.90;11.35;;;7.70;99.90;;;;;;5009492;28;20184;-70
2022/01/04 00:45:36;;;;;;;32.45;12.25;;;7.70;99.90;;;;;;5026947;28;20037;-70
2022/01/04 00:50:33;;;;;;;19.55;3.45;;;7.70;99.90;;;;;;5008273;28;20045;-70
2022/01/04 00:53:00;;;;;;;22.15;2.90;;;7.70;99.90;;;;;;5019433;28;20053;-70
2022/01/04 00:55:27;;;;;;;16.88;3.10;;;7.80;99.90;;;;;;4990295;28;20111;-70
2022/01/04 00:57:53;;;;;;;20.00;3.65;;;7.80;99.90;;;;;;5023529;28;20046;-70
2022/01/04 01:00:19;;;;;;;15.88;3.42;;;7.90;99.90;;;;;;5018923;28;20095;-70
2022/01/04 01:02:45;;;;;;;18.65;3.63;;;7.90;99.90;;;;;;5024806;28;20094;-70
2022/01/04 01:05:12;;;;;;;18.10;3.28;;;7.90;99.90;;;;;;5024766;28;20048;-70
2022/01/04 01:07:38;;;;;;;20.60;3.17;;;7.90;99.90;;;;;;5023008;28;20038;-70
2022/01/04 01:10:33;;;;;;;19.05;2.63;;;7.90;99.90;;;;;;4989397;28;20143;-70
2022/01/04 01:12:58;;;;;;;20.00;3.33;;;7.90;99.90;;;;;;5007782;28;20128;-70
2022/01/04 01:15:24;;;;;;;13.13;3.07;;;7.90;99.90;;;;;;5008326;28;20120;-70
2022/01/04 01:17:50;;;;;;;24.57;4.20;;;8.00;99.90;;;;;;4985314;28;20471;-70
2022/01/04 01:20:17;;;;;;;10.38;2.72;;;8.00;99.90;;;;;;5008305;28;20555;-70
2022/01/04 01:22:43;;;;;;;19.27;3.58;;;8.00;99.90;;;;;;5027144;28;20096;-70
2022/01/04 01:25:10;;;;;;;31.97;3.37;;;8.00;99.90;;;;;;5023554;28;20165;-70
2022/01/04 01:27:36;;;;;;;20.08;3.58;;;8.00;99.90;;;;;;5024389;28;20292;-70
2022/01/04 01:30:06;;;;;;;17.65;3.08;;;8.00;99.90;;;;;;5012300;28;20048;-70
2022/01/04 01:32:34;;;;;;;12.15;2.80;;;8.00;99.90;;;;;;5012984;28;20398;-71
2022/01/04 01:35:00;;;;;;;14.75;2.88;;;8.00;99.90;;;;;;5023815;28;20195;-70
2022/01/04 01:37:28;;;;;;;21.93;4.60;;;8.00;99.90;;;;;;5007439;28;20120;-70
2022/01/04 01:39:54;;;;;;;15.45;2.83;;;8.00;99.90;;;;;;5004722;28;20068;-70
2022/01/04 01:42:19;;;;;;;27.87;4.33;;;7.90;99.90;;;;;;5004045;28;20076;-70
2022/01/04 01:44:45;;;;;;;18.53;2.80;;;7.90;99.90;;;;;;5021158;28;20357;-70
2022/01/04 01:47:11;;;;;;;17.27;4.07;;;7.90;99.90;;;;;;5023736;28;20030;-70
2022/01/04 01:49:43;;;;;;;16.50;3.80;;;7.90;99.90;;;;;;5001928;28;20041;-70
2022/01/04 01:52:09;;;;;;;25.98;3.65;;;7.90;99.90;;;;;;5009018;28;20438;-70
2022/01/04 01:54:35;;;;;;;23.73;3.88;;;7.80;99.90;;;;;;5012681;28;20508;-70
2022/01/04 01:57:02;;;;;;;20.93;5.67;;;7.80;99.90;;;;;;5025600;28;20037;-70
2022/01/04 01:59:28;;;;;;;21.80;3.53;;;7.80;99.90;;;;;;5008551;28;20510;-70
2022/01/04 02:01:54;;;;;;;20.07;4.60;;;7.80;99.90;;;;;;5005606;28;20041;-70
2022/01/04 02:04:20;;;;;;;21.95;4.07;;;7.80;99.90;;;;;;5009076;28;20748;-70
2022/01/04 02:06:45;;;;;;;22.40;4.33;;;7.80;99.90;;;;;;5027755;28;20045;-70
2022/01/04 02:09:11;;;;;;;25.77;4.60;;;7.80;99.90;;;;;;5010164;28;20393;-70
2022/01/04 02:11:37;;;;;;;22.53;3.73;;;7.70;99.90;;;;;;5005982;28;20041;-70
2022/01/04 02:14:03;;;;;;;20.48;4.88;;;7.70;99.90;;;;;;5027914;28;20040;-70
2022/01/04 02:16:30;;;;;;;25.00;3.45;;;7.70;99.90;;;;;;5010112;28;20039;-70
2022/01/04 02:19:04;;;;;;;19.67;4.13;;;7.70;99.90;;;;;;5027584;28;20045;-70
2022/01/04 02:21:30;;;;;;;21.45;4.15;;;7.70;99.90;;;;;;5007762;28;20056;-70
2022/01/04 02:23:56;;;;;;;;;;;7.70;99.90;;;;;;5029031;28;20037;-70
2022/01/04 02:26:25;;;;;;;22.90;5.03;;;7.70;99.90;;;;;;5003939;28;19956;-70
2022/01/04 02:28:51;;;;;;;18.38;4.38;;;7.70;99.90;;;;;;5007758;28;20057;-70
2022/01/04 02:31:17;;;;;;;19.90;3.80;;;7.80;99.90;;;;;;5023415;28;20277;-70
2022/01/04 02:33:43;;;;;;;15.55;2.95;;;7.80;99.90;;;;;;5005663;28;20466;-70
2022/01/04 02:36:08;;;;;;;19.00;4.53;;;7.70;99.90;;;;;;5023159;28;20048;-70
2022/01/04 02:38:34;;;;;;;25.03;3.23;;;7.80;99.90;;;;;;5006642;28;20041;-69
2022/01/04 02:41:00;;;;;;;22.00;5.03;;;7.80;99.90;;;;;;5005249;28;20065;-70
2022/01/04 02:43:26;;;;;;;19.70;4.57;;;7.80;99.90;;;;;;5023803;28;20041;-70
2022/01/04 02:45:51;;;;;;;23.30;4.03;;;7.80;99.90;;;;;;5024923;28;20592;-70
2022/01/04 02:48:17;;;;;;;21.23;4.50;;;7.80;99.90;;;;;;5024115;28;20102;-70
2022/01/04 02:50:43;;;;;;;17.83;4.37;;;7.90;99.90;;;;;;5025372;28;20049;-70
2022/01/04 02:53:08;;;;;;;12.77;4.40;;;7.90;99.90;;;;;;5024887;28;20069;-70
2022/01/04 02:55:34;;;;;;;33.43;4.33;;;7.80;99.90;;;;;;5004747;28;20436;-70
2022/01/04 02:58:00;;;;;;;19.50;4.13;;;7.80;99.90;;;;;;5025042;28;20048;-69
2022/01/04 03:00:26;;;;;;;25.50;3.87;;;7.80;99.90;;;;;;5003263;28;20046;-70
2022/01/04 03:02:52;;;;;;;16.88;3.22;;;7.80;99.90;;;;;;5024345;28;20049;-70
2022/01/04 03:05:18;;;;;;;;;;;7.80;99.90;;;;;;5024665;28;20037;-70
2022/01/04 03:07:44;;;;;;;22.60;4.05;;;7.90;99.90;;;;;;5024098;28;20328;-70
2022/01/04 03:10:10;;;;;;;21.00;4.45;;;7.90;99.90;;;;;;5022012;28;20096;-69
2022/01/04 03:12:39;;;;;;;24.00;4.30;;;7.90;99.90;;;;;;5009401;28;20211;-70
2022/01/04 03:15:05;;;;;;;22.13;5.03;;;7.90;99.90;;;;;;5023664;28;20484;-70
2022/01/04 03:17:31;;;;;;;17.73;4.38;;;7.80;99.90;;;;;;5024977;28;20049;-70
2022/01/04 03:19:56;;;;;;;22.13;3.65;;;7.90;99.90;;;;;;5004764;28;20046;-70
2022/01/04 03:22:22;;;;;;;25.47;4.33;;;7.80;99.90;;;;;;4986039;28;20100;-70
2022/01/04 03:24:48;;;;;;;24.53;4.00;;;7.80;99.90;;;;;;4992044;28;20045;-70
2022/01/04 03:27:13;;;;;;;22.23;4.00;;;7.80;99.90;;;;;;5025971;28;20033;-70
2022/01/04 03:29:39;;;;;;;22.27;4.23;;;7.80;99.90;;;;;;5025823;28;20532;-70
2022/01/04 03:32:05;;;;;;;25.50;4.10;;;7.80;99.90;;;;;;5026410;28;20579;-69
2022/01/04 03:34:31;;;;;;;19.80;3.65;;;7.90;99.90;;;;;;5025983;28;20540;-70
2022/01/04 03:36:56;;;;;;;24.90;3.80;;;7.90;99.90;;;;;;5026802;28;20037;-70
2022/01/04 03:39:22;;;;;;;27.90;3.43;;;7.90;99.90;;;;;;5020638;28;20555;-70
2022/01/04 03:41:48;;;;;;;14.80;3.87;;;7.90;99.90;;;;;;5010049;28;20079;-69
2022/01/04 03:44:18;;;;;;;16.93;4.10;;;7.90;99.90;;;;;;5023284;28;20041;-70
2022/01/04 03:46:45;;;;;;;20.08;3.42;;;7.90;99.90;;;;;;5004003;28;20430;-70
2022/01/04 03:49:11;;;;;;;20.27;3.63;;;7.90;99.90;;;;;;5023218;28;20042;-69
2022/01/04 03:51:36;;;;;;;14.13;5.03;;;7.90;99.90;;;;;;5001993;28;20477;-70
2022/01/04 03:54:02;;;;;;;24.87;4.50;;;7.90;99.90;;;;;;5026408;28;20084;-69
2022/01/04 03:56:28;;;;;;;16.15;3.20;;;7.90;99.90;;;;;;5003609;28;20203;-70
2022/01/04 03:58:54;;;;;;;16.20;4.10;;;7.90;99.90;;;;;;5002414;28;20048;-70
2022/01/04 04:01:22;;;;;;;30.90;4.53;;;8.00;99.90;;;;;;5026013;28;20033;-70
2022/01/04 04:03:48;;;;;;;33.83;5.07;;;7.90;99.90;;;;;;5005029;28;20037;-70
2022/01/04 04:06:13;;;;;;;18.63;3.93;;;7.90;99.90;;;;;;5003361;28;20057;-70
2022/01/04 04:08:39;;;;;;;23.83;4.43;;;8.00;99.90;;;;;;5005754;28;20041;-70
2022/01/04 04:11:05;;;;;;;23.83;4.10;;;7.90;99.90;;;;;;5004789;28;20917;-69
2022/01/04 04:13:31;;;;;;;26.77;4.75;;;7.90;99.90;;;;;;5018894;28;20847;-70
2022/01/04 04:15:56;;;;;;;19.43;3.53;;;8.00;99.90;;;;;;5019873;28;20045;-69
2022/01/04 04:18:22;;;;;;;21.63;4.03;;;7.90;99.90;;;;;;5008568;28;20124;-70
2022/01/04 04:20:48;;;;;;;24.23;4.20;;;8.00;99.90;;;;;;5010270;28;20042;-69
2022/01/04 04:23:13;;;;;;;31.30;5.00;;;8.00;99.90;;;;;;5009328;28;20037;-70
2022/01/04 04:25:40;;;;;;;19.43;4.43;;;8.00;99.90;;;;;;5022900;28;20095;-69
2022/01/04 04:28:05;;;;;;;14.40;4.22;;;8.00;99.90;;;;;;5025003;28;20045;-70
2022/01/04 04:30:31;;;;;;;28.05;3.90;;;8.00;99.90;;;;;;5007337;28;20498;-70
2022/01/04 04:32:57;;;;;;;14.73;4.25;;;8.00;99.90;;;;;;5015307;28;20053;-70
2022/01/04 04:35:23;;;;;;;12.67;3.23;;;8.00;99.90;;;;;;5028855;28;20231;-70
2022/01/04 04:37:49;;;;;;;22.42;3.95;;;8.00;99.90;;;;;;5018763;28;20029;-70
2022/01/04 04:40:14;;;;;;;30.73;4.20;;;8.10;99.90;;;;;;5004369;28;20125;-70
2022/01/04 04:42:40;;;;;;;22.23;3.17;;;8.10;99.90;;;;;;5018388;28;20037;-70
2022/01/04 04:45:06;;;;;;;17.45;4.30;;;8.00;99.90;;;;;;5023226;28;20025;-70
2022/01/04 04:47:32;;;;;;;25.63;4.38;;;8.00;99.90;;;;;;5021893;28;20045;-70
2022/01/04 04:49:58;;;;;;;22.97;3.97;;;8.10;99.90;;;;;;4999924;28;20179;-70
2022/01/04 04:52:23;;;;;;;21.63;3.90;;;8.00;99.90;;;;;;5027451;28;20124;-70
2022/01/04 04:54:49;;;;;;;24.03;4.20;;;8.00;99.90;;;;;;5011364;28;20037;-69
2022/01/04 04:57:15;;;;;;;34.53;5.33;;;8.10;99.90;;;;;;5010004;28;20080;-70
2022/01/04 04:59:41;;;;;;;19.42;4.07;;;8.10;99.90;;;;;;5024859;28;20045;-70
2022/01/04 05:02:07;;;;;;;24.77;3.90;;;8.00;99.90;;;;;;5025780;28;20045;-70
2022/01/04 05:04:36;;;;;;;14.65;3.95;;;8.10;99.90;;;;;;5010574;28;20131;-70
2022/01/04 05:07:02;;;;;;;16.38;3.53;;;8.10;99.90;;;;;;5023530;28;20060;-70
2022/01/04 05:09:28;;;;;;;13.60;3.45;;;8.10;99.90;;;;;;5007180;28;20478;-70
2022/01/04 05:11:53;;;;;;;21.53;3.27;;;8.00;99.90;;;;;;5025258;28;20041;-70
2022/01/04 05:14:19;;;;;;;25.27;4.50;;;8.00;99.90;;;;;;5024362;28;20041;-70
2022/01/04 05:16:45;;;;;;;25.10;4.33;;;8.10;99.90;;;;;;5004344;28;20081;-70
2022/01/04 05:19:10;;;;;;;21.23;4.07;;;8.10;99.90;;;;;;5005604;28;20110;-70
2022/01/04 05:21:36;;;;;;;16.90;2.97;;;8.10;99.90;;;;;;5017734;28;20042;-69
2022/01/04 05:24:04;;;;;;;19.77;3.37;;;8.10;99.90;;;;;;5007758;28;20506;-70
2022/01/04 05:26:30;;;;;;;20.35;4.85;;;8.10;99.90;;;;;;5025053;28;20029;-70
2022/01/04 05:28:55;;;;;;;26.37;4.97;;;8.10;99.90;;;;;;5024355;28;20061;-70
2022/01/04 05:31:21;;;;;;;18.57;4.20;;;8.10;99.90;;;;;;5000974;28;20551;-70
2022/01/04 05:33:46;;;;;;;20.63;5.27;;;8.10;99.90;;;;;;5009295;28;20448;-70
2022/01/04 05:36:12;;;;;;;20.30;3.07;;;8.10;99.90;;;;;;5007819;28;20112;-70
2022/01/04 05:38:38;;;;;;;15.90;3.93;;;8.10;99.90;;;;;;5002917;28;20783;-70
2022/01/04 05:41:03;;;;;;;27.20;4.27;;;8.00;99.90;;;;;;5003236;28;20041;-70
2022/01/04 05:43:29;;;;;;;26.13;4.43;;;8.00;99.90;;;;;;5021592;28;20401;-70
2022/01/04 05:45:54;;;;;;;31.00;3.90;;;8.00;99.90;;;;;;5010152;28;20288;-69
2022/01/04 05:50:52;;;;;;;21.52;4.38;;;8.00;99.90;;;;;;4982113;28;20502;-68
2022/01/04 05:53:19;;;;;;;20.83;4.13;;;8.00;99.90;;;;;;4983644;28;20049;-68
2022/01/04 05:55:45;;;;;;;19.90;5.03;;;7.90;99.90;;;;;;4969889;28;20034;-67
2022/01/04 05:58:11;;;;;;;20.27;4.60;;;8.00;99.90;;;;;;4985204;28;20031;-68
2022/01/04 06:00:37;;;;;;;27.70;5.00;;;7.90;99.90;;;;;;4985843;28;20051;-68
2022/01/04 06:03:03;;;;;;;31.73;5.93;;;7.90;99.90;;;;;;4987001;28;20299;-67
2022/01/04 06:05:29;;;;;;;34.73;5.30;;;7.90;99.90;;;;;;4988222;28;20085;-68
2022/01/04 06:07:54;;;;;;;22.85;3.97;;;7.90;99.90;;;;;;4997900;28;20126;-68
2022/01/04 06:10:20;;;;;;;26.47;4.77;;;7.90;99.90;;;;;;4982076;28;20125;-68
2022/01/04 06:15:17;;;;;;;18.37;4.73;;;8.00;99.90;;;;;;4970623;28;20400;-68
2022/01/04 06:17:49;;;;;;;22.00;4.72;;;7.90;99.90;;;;;;4989574;28;20391;-68
2022/01/04 06:20:21;;;;;;;21.10;4.35;;;8.00;99.90;;;;;;4986045;28;20509;-68
2022/01/04 06:22:48;;;;;;;21.50;4.60;;;7.90;99.90;;;;;;4983659;28;20137;-68
2022/01/04 06:25:16;;;;;;;18.83;4.75;;;8.00;99.90;;;;;;4994804;28;20046;-68
2022/01/04 06:27:43;;;;;;;13.98;4.85;;;7.90;99.90;;;;;;4998149;28;20038;-68
2022/01/04 06:30:09;;;;;;;20.17;4.88;;;8.00;99.90;;;;;;4973915;28;20082;-68
2022/01/04 06:32:38;;;;;;;14.95;4.13;;;8.00;99.90;;;;;;4981899;28;20293;-68
2022/01/04 06:35:05;;;;;;;20.88;3.85;;;8.00;99.90;;;;;;4990546;28;20038;-68
2022/01/04 06:37:32;;;;;;;19.77;4.35;;;7.90;99.90;;;;;;4990179;28;20077;-68
2022/01/04 06:39:58;;;;;;;23.33;3.95;;;7.90;99.90;;;;;;4976342;28;20136;-68
2022/01/04 06:42:24;;;;;;;18.73;3.40;;;7.90;99.90;;;;;;4992934;28;20087;-68
2022/01/04 06:44:49;;;;;;;15.63;3.15;;;7.90;99.90;;;;;;4981789;28;20050;-68
2022/01/04 06:47:15;;;;;;;20.17;3.23;;;7.80;99.90;;;;;;4987871;28;20039;-68
2022/01/04 06:49:40;;;;;;;11.40;3.37;;;7.80;99.90;;;;;;4985184;28;20042;-68
2022/01/04 06:52:06;;;;;;;19.13;3.80;;;7.80;99.90;;;;;;4976632;28;20440;-68
2022/01/04 06:54:31;;;;;;;17.37;3.80;;;7.80;99.90;;;;;;4989442;28;20042;-68
2022/01/04 06:56:57;;;;;;;12.33;3.80;;;7.80;99.90;;;;;;4988124;28;20505;-68
2022/01/04 06:59:23;;;;;;;14.13;4.00;;;7.80;99.90;;;;;;4983778;28;20042;-68
2022/01/04 07:01:48;;;;;;;16.57;5.00;;;7.80;99.90;;;;;;4987927;28;20042;-68
2022/01/04 07:04:16;;;;;;;31.67;5.67;;;7.80;99.90;;;;;;4984390;28;20104;-68
2022/01/04 07:06:42;;;;;;;24.58;6.47;;;7.80;99.90;;;;;;4988466;28;20042;-68
2022/01/04 07:09:08;;;;;;;18.70;5.87;;;7.90;99.90;;;;;;4981381;28;20150;-68
2022/01/04 07:11:34;;;;;;;24.10;6.18;;;7.90;99.90;;;;;;4982917;28;20046;-67
2022/01/04 07:14:00;;;;;;;28.10;7.10;;;7.90;99.90;;;;;;4989313;28;20438;-68
2022/01/04 07:16:26;;;;;;;26.63;5.70;;;7.90;99.90;;;;;;4988491;28;20045;-68
2022/01/04 07:18:53;;;;;;;27.65;7.60;;;7.90;99.90;;;;;;4988494;28;20117;-69
2022/01/04 07:21:19;;;;;;;36.97;6.03;;;7.90;99.90;;;;;;4973571;28;20050;-69
2022/01/04 07:23:49;;;;;;;21.42;6.47;;;7.90;99.90;;;;;;4982446;28;20046;-68
2022/01/04 07:26:17;;;;;;;15.82;5.43;;;7.90;99.90;;;;;;4984931;28;20038;-77
2022/01/04 07:28:47;;;;;;;11.98;3.90;;;7.90;99.90;;;;;;4978512;28;20045;-70
2022/01/04 07:31:14;;;;;;;10.35;3.13;;;7.90;99.90;;;;;;4979738;28;20049;-69
2022/01/04 07:33:40;;;;;;;10.88;2.78;;;7.90;99.90;;;;;;4981120;28;20498;-68
2022/01/04 07:36:09;;;;;;;12.88;3.47;;;7.80;99.90;;;;;;4986083;28;20134;-72
2022/01/04 07:38:36;;;;;;;9.93;3.00;;;7.80;99.90;;;;;;4980536;28;20506;-67
2022/01/04 07:41:03;;;;;;;7.18;2.70;;;7.80;99.90;;;;;;4981621;28;20041;-67
2022/01/04 07:43:28;;;;;;;;;;;7.80;99.90;;;;;;4985169;28;20097;-69
2022/01/04 07:45:54;;;;;;;14.48;3.28;;;7.70;99.90;;;;;;4982632;28;20326;-69
2022/01/04 07:48:20;;;;;;;11.73;3.20;;;7.70;99.90;;;;;;4985065;28;20041;-69
2022/01/04 07:50:50;;;;;;;12.88;3.83;;;7.70;99.90;;;;;;4974119;28;20051;-69
2022/01/04 07:53:16;;;;;;;17.17;3.72;;;7.70;99.90;;;;;;4986662;28;20564;-67
2022/01/04 07:55:42;;;;;;;16.15;4.03;;;7.70;99.90;;;;;;4962517;28;20184;-67
2022/01/04 07:58:08;;;;;;;12.68;3.30;;;7.70;99.90;;;;;;4982953;28;20073;-67
2022/01/04 08:00:34;;;;;;;10.37;4.20;;;7.70;99.90;;;;;;4975448;28;20169;-67
2022/01/04 08:02:59;;;;;;;12.70;2.97;;;7.70;99.90;;;;;;4984289;28;20066;-68
2022/01/04 08:05:25;;;;;;;23.37;3.60;;;7.70;99.90;;;;;;4987039;28;20038;-67
2022/01/04 08:07:51;;;;;;;17.47;3.50;;;7.70;99.90;;;;;;4982053;28;20090;-67
2022/01/04 08:10:18;;;;;;;18.35;4.30;;;7.70;99.90;;;;;;4980559;28;20038;-67
2022/01/04 08:12:44;;;;;;;18.05;3.53;;;7.70;99.90;;;;;;4982549;28;20050;-68
2022/01/04 08:15:10;;;;;;;11.73;2.65;;;7.70;99.90;;;;;;4980809;28;20395;-68
2022/01/04 08:17:36;;;;;;;23.92;3.92;;;7.70;99.90;;;;;;4984543;28;20046;-68
2022/01/04 08:20:03;;;;;;;13.23;2.78;;;7.70;99.90;;;;;;4983722;28;20046;-67
2022/01/04 08:22:32;;;;;;;18.60;3.90;;;7.70;99.90;;;;;;4977525;28;20101;-67
2022/01/04 08:25:16;;;;;;;20.30;3.80;;;7.70;99.90;;;;;;4983808;28;20096;-68
2022/01/04 08:27:41;;;;;;;12.27;2.47;;;7.60;99.90;;;;;;4986444;28;20411;-67
2022/01/04 08:30:10;;;;;;;20.17;2.50;;;7.60;99.90;;;;;;4984703;28;20050;-68
2022/01/04 08:32:37;;;;;;;23.20;3.00;;;7.60;99.90;;;;;;4981568;28;20451;-68
2022/01/04 08:35:04;;;;;;;19.35;3.00;;;7.60;99.90;;;;;;4983638;28;20053;-68
2022/01/04 08:37:30;;;;;;;;;;;7.60;99.90;;;;;;4987637;28;20038;-66
2022/01/04 08:39:56;;;;;;;12.90;3.30;;;7.70;99.90;;;;;;4981478;28;20195;-67
2022/01/04 08:42:22;;;;;;;10.88;2.50;;;7.60;99.90;;;;;;4985032;28;20089;-68
2022/01/04 08:44:54;;;;;;;7.72;1.50;;;7.60;99.90;;;;;;4986263;28;20062;-67
2022/01/04 08:47:20;;;;;;;5.13;1.40;;;7.60;99.90;;;;;;4979043;28;20073;-68
2022/01/04 08:49:45;;;;;;;8.05;1.52;;;7.50;99.90;;;;;;4984691;28;20069;-68
2022/01/04 08:52:11;;;;;;;5.77;0.70;;;7.40;99.90;;;;;;4987475;28;20042;-67
2022/01/04 08:54:38;;;;;;;5.80;1.15;;;7.40;99.90;;;;;;4986092;28;20057;-67
2022/01/04 08:57:04;;;;;;;5.97;0.98;;;7.30;99.90;;;;;;4982856;28;20387;-67
2022/01/04 08:59:32;;;;;;;2.20;0.40;;;7.30;99.90;;;;;;4976841;28;20042;-68
2022/01/04 09:01:58;;;;;;;4.05;0.60;;;7.20;99.90;;;;;;4985699;28;20431;-67
2022/01/04 09:04:23;;;;;;;7.63;1.00;;;7.20;99.90;;;;;;4982567;28;20045;-67
2022/01/04 09:06:49;;;;;;;3.47;1.00;;;7.20;99.90;;;;;;4975958;28;20038;-67
2022/01/04 09:09:15;;;;;;;5.10;1.02;;;7.10;99.90;;;;;;4983679;28;20071;-68
2022/01/04 09:11:42;;;;;;;2.97;0.63;;;7.20;99.90;;;;;;4984236;28;20145;-67
2022/01/04 09:19:27;;;;;;;5.30;0.90;;;7.00;99.90;;;;;;4956230;28;20050;-68
2022/01/04 09:21:53;;;;;;;1.23;0.50;;;7.00;99.90;;;;;;4982918;28;20038;-68
2022/01/04 09:24:19;;;;;;;4.63;0.80;;;7.00;99.90;;;;;;4987185;28;20218;-68
2022/01/04 09:26:45;;;;;;;6.87;0.60;;;6.90;99.90;;;;;;4981731;28;20464;-68
2022/01/04 09:29:11;;;;;;;2.75;0.77;;;6.90;99.90;;;;;;4976607;28;20031;-67
2022/01/04 09:31:37;;;;;;;3.90;0.70;;;6.90;99.90;;;;;;4973871;28;20372;-67
2022/01/04 09:34:03;;;;;;;3.70;0.40;;;6.90;99.90;;;;;;4978934;28;20027;-68
2022/01/04 09:36:34;;;;;;;2.08;0.47;;;6.90;99.90;;;;;;4985173;28;20053;-67
2022/01/04 09:39:02;;;;;;;6.35;0.88;;;6.90;99.90;;;;;;4984206;28;20047;-68
2022/01/04 09:41:28;;;;;;;4.50;0.65;;;6.90;99.90;;;;;;4980599;28;20056;-67
2022/01/04 09:43:54;;;;;;;2.17;0.70;;;6.80;99.90;;;;;;4975762;28;20034;-67
2022/01/04 09:46:20;;;;;;;4.13;0.80;;;6.90;99.90;;;;;;4977177;28;20097;-68
2022/01/04 09:48:47;;;;;;;5.72;1.00;;;6.80;99.90;;;;;;4977734;28;20038;-67
2022/01/04 09:51:15;;;;;;;7.63;0.95;;;6.80;99.90;;;;;;4980582;28;20367;-67
2022/01/04 09:53:41;;;;;;;3.92;1.13;;;6.80;99.90;;;;;;4980403;28;20137;-67
2022/01/04 09:56:07;;;;;;;6.43;0.60;;;6.80;99.90;;;;;;4984349;28;20121;-67
2022/01/04 09:58:33;;;;;;;2.53;0.73;;;6.70;99.90;;;;;;4982746;28;20203;-69
2022/01/04 10:00:58;;;;;;;1.80;0.60;;;6.70;99.90;;;;;;4986765;28;20062;-70
2022/01/04 10:03:29;;;;;;;5.77;0.97;;;6.70;99.90;;;;;;4982484;28;20399;-70
2022/01/04 10:06:15;;;;;;;11.48;0.80;;;6.60;99.90;;;;;;4983256;28;20042;-72
2022/01/04 10:08:57;;;;;;;14.60;4.32;;;6.60;99.90;;;;;;4978547;28;20259;-69
2022/01/04 10:11:37;;;;;;;8.68;1.17;;;6.60;99.90;;;;;;4980042;28;20356;-67
2022/01/04 10:14:32;;;;;;;4.63;0.70;;;6.50;99.90;;;;;;4985137;28;20030;-69
2022/01/04 10:17:01;;;;;;;3.22;0.60;;;6.50;99.90;;;;;;4986984;28;20130;-69
2022/01/04 10:19:32;;;;;;;3.67;0.80;;;6.50;99.90;;;;;;4990356;28;20507;-67
2022/01/04 10:22:19;;;;;;;1.30;0.40;;;6.40;99.90;;;;;;4980797;28;20031;-68
2022/01/04 10:24:48;;;;;;;2.78;0.30;;;6.30;99.90;;;;;;4977908;28;20109;-67
2022/01/04 10:27:33;;;;;;;1.73;0.40;;;6.30;99.90;;;;;;4983122;28;20114;-67
2022/01/04 10:30:20;;;;;;;6.50;1.30;;;6.20;99.90;;;;;;4982044;28;20039;-67
2022/01/04 10:32:55;;;;;;;7.05;1.05;;;6.10;99.90;;;;;;4979577;28;20580;-67
2022/01/04 10:35:40;;;;;;;3.67;0.30;;;6.10;99.90;;;;;;4980222;28;20042;-68
2022/01/04 10:38:19;;;;;;;3.95;0.35;;;6.10;99.90;;;;;;4978835;28;20442;-70
2022/01/04 10:40:48;;;;;;;2.20;0.43;;;6.10;99.90;;;;;;4980331;28;20054;-68
2022/01/04 10:43:16;;;;;;;3.00;0.50;;;6.10;99.90;;;;;;4977054;28;20054;-68
2022/01/04 10:45:43;;;;;;;3.50;0.50;;;6.10;99.90;;;;;;4979080;28;20958;-68
2022/01/04 10:48:10;;;;;;;6.13;1.20;;;6.10;99.90;;;;;;4976459;28;20042;-68
2022/01/04 10:50:36;;;;;;;2.92;0.52;;;6.10;99.90;;;;;;4983288;28;20404;-68
2022/01/04 10:53:04;;;;;;;3.35;0.70;;;6.10;99.90;;;;;;4980373;28;20053;-67
2022/01/04 10:55:34;;;;;;;2.15;0.70;;;6.10;99.90;;;;;;4983232;28;20039;-66
2022/01/04 10:58:01;;;;;;;1.73;0.50;;;6.00;99.90;;;;;;4970631;28;20034;-67
2022/01/04 11:00:27;;;;;;;1.35;0.50;;;5.90;99.90;;;;;;4982958;28;20046;-67
2022/01/04 11:02:53;;;;;;;8.48;0.85;;;5.90;99.90;;;;;;4975769;28;20042;-67
2022/01/04 11:05:21;;;;;;;8.50;0.87;;;5.80;99.90;;;;;;4976607;28;20061;-67
2022/01/04 11:07:59;;;;;;;3.42;0.57;;;5.70;99.90;;;;;;4982753;28;20141;-67
2022/01/04 11:10:27;;;;;;;4.25;0.60;;;5.70;99.90;;;;;;4986969;28;20034;-67
2022/01/04 11:12:55;;;;;;;3.67;0.50;;;5.70;99.90;;;;;;4979863;28;20050;-67
2022/01/04 11:15:20;;;;;;;5.28;0.77;;;5.70;99.90;;;;;;4983058;28;20101;-67
2022/01/04 11:17:46;;;;;;;6.30;0.73;;;5.70;99.90;;;;;;4987719;28;20280;-67
2022/01/04 11:20:12;;;;;;;5.22;0.82;;;5.70;99.90;;;;;;4985001;28;20112;-68
2022/01/04 11:22:45;;;;;;;5.67;0.70;;;5.70;99.90;;;;;;4982059;28;20518;-68
2022/01/04 11:25:13;;;;;;;2.00;0.85;;;5.70;99.90;;;;;;4983848;28;20045;-69
2022/01/04 11:27:40;;;;;;;1.70;0.70;;;5.70;99.90;;;;;;4984833;28;20393;-68
2022/01/04 11:30:35;;;;;;;7.93;1.27;;;5.70;99.90;;;;;;4973885;28;20050;-68
2022/01/04 11:33:07;;;;;;;3.58;0.70;;;5.80;99.90;;;;;;4980752;28;20544;-68
2022/01/04 11:35:33;;;;;;;6.22;1.10;;;5.90;99.90;;;;;;4974752;28;20122;-68
2022/01/04 11:38:00;;;;;;;2.90;0.73;;;5.90;99.90;;;;;;4981901;28;20403;-68
2022/01/04 11:40:34;;;;;;;5.22;0.55;;;5.90;99.90;;;;;;4970738;28;20050;-67
2022/01/04 11:43:01;;;;;;;5.50;0.70;;;6.00;99.90;;;;;;4970819;28;20389;-68
2022/01/04 11:45:44;;;;;;;1.25;0.50;;;6.00;99.90;;;;;;4981967;28;20046;-67
2022/01/04 11:48:27;;;;;;;3.45;0.60;;;6.00;99.90;;;;;;4980366;28;20109;-67
2022/01/04 11:50:54;;;;;;;5.30;0.98;;;6.00;99.90;;;;;;5102954;22;20067;-66
2022/01/04 11:53:20;;;;;;;3.60;1.23;;;6.10;99.90;;;;;;5050954;28;20504;-66
2022/01/04 11:55:55;;;;;;;5.63;0.67;;;6.00;99.90;;;;;;5050776;28;20037;-66
2022/01/04 11:58:26;;;;;;;10.27;0.77;;;6.10;99.90;;;;;;5036363;28;20037;-67
2022/01/04 12:01:14;;;;;;;4.13;0.70;;;6.10;99.90;;;;;;5028957;28;20045;-66
2022/01/04 12:03:47;;;;;;;6.72;1.10;;;6.10;99.90;;;;;;5028680;28;20407;-67
2022/01/04 12:06:15;;;;;;;3.97;0.80;;;6.10;99.90;;;;;;5030104;28;20033;-66
2022/01/04 12:08:50;;;;;;;4.90;1.02;;;6.10;99.90;;;;;;5030774;28;20444;-67
2022/01/04 12:11:38;;;;;;;5.15;0.93;;;6.20;99.90;;;;;;5029951;28;20041;-67
2022/01/04 12:14:04;;;;;;;5.28;1.05;;;6.20;99.90;;;;;;5029078;28;20053;-67
2022/01/04 12:16:39;;;;;;;3.60;0.63;;;6.20;99.90;;;;;;5031300;28;20433;-66
2022/01/04 12:19:10;;;;;;;5.65;0.80;;;6.20;99.90;;;;;;5010802;28;20041;-68
2022/01/04 12:21:48;;;;;;;5.72;0.95;;;6.30;99.90;;;;;;5011934;28;20034;-67
2022/01/04 12:24:18;;;;;;;3.63;0.60;;;6.30;99.90;;;;;;5011573;28;20099;-67
2022/01/04 12:26:43;;;;;;;9.23;2.13;;;6.30;99.90;;;;;;5009483;28;20041;-67
2022/01/04 12:29:09;;;;;;;4.20;0.60;;;6.30;99.90;;;;;;5010253;28;20056;-66
2022/01/04 12:31:36;;;;;;;5.67;1.10;;;6.30;99.90;;;;;;5009327;28;20176;-67
2022/01/04 12:34:07;;;;;;;;;;;6.30;99.90;;;;;;5031017;28;20398;-67
2022/01/04 12:36:42;;;;;;;7.82;0.70;;;6.30;99.90;;;;;;5046481;28;19917;-67
2022/01/04 12:39:14;;;;;;;8.32;0.95;;;6.30;99.90;;;;;;5008268;28;20050;-66
2022/01/04 12:41:43;;;;;;;6.95;0.95;;;6.20;99.90;;;;;;5020069;28;20389;-66
2022/01/04 12:44:10;;;;;;;4.13;0.80;;;6.20;99.90;;;;;;5049527;28;20040;-66
2022/01/04 12:46:39;;;;;;;6.15;0.82;;;6.10;99.90;;;;;;5049381;28;20069;-66
2022/01/04 12:49:10;;;;;;;7.90;1.15;;;6.10;99.90;;;;;;5050336;28;20045;-67
2022/01/04 12:51:44;;;;;;;5.70;1.60;;;6.00;99.90;;;;;;5050112;28;20056;-66
2022/01/04 12:54:12;;;;;;;4.32;0.95;;;6.00;99.90;;;;;;5045762;28;20073;-67
2022/01/04 12:56:48;;;;;;;6.40;0.50;;;5.90;99.90;;;;;;5028621;28;20056;-67
2022/01/04 12:59:22;;;;;;;6.45;0.85;;;5.90;99.90;;;;;;5030181;28;20100;-67
2022/01/04 13:01:49;;;;;;;6.13;1.30;;;5.90;99.90;;;;;;5030785;28;20406;-67
2022/01/04 13:04:19;;;;;;;;;;;5.90;99.90;;;;;;5029495;28;20042;-67
2022/01/04 13:06:44;;;;;;;4.20;0.85;;;5.90;99.90;;;;;;5030192;28;20067;-67
2022/01/04 13:09:10;;;;;;;7.87;1.63;;;5.90;99.90;;;;;;5029465;28;20116;-67